Time;durP1;ratioP1;P1;durP2;ratioP2;P2;SDS_P1;SDS_P2;PMS_P1;PMS_P2;Temp;Humidity;BMP_temperature;BMP_pressure;BME280_temperature;BME280_humidity;BME280_pressure;Samples;Min_cycle;Max_cycle;Signal;HPM_P1;HPM_P2
2022/01/12 00:00:55;;;;;;;;;48.50;29.00;;;;;2.17;71.55;102835.78;5118449;27;45227;-64
2022/01/12 00:03:20;;;;;;;;;43.25;31.75;;;;;2.20;71.58;102832.31;5099992;27;45460;-64
2022/01/12 00:05:46;;;;;;;;;39.50;31.25;;;;;2.23;71.69;102834.88;5118127;27;48934;-62
2022/01/12 00:08:11;;;;;;;;;38.00;21.75;;;;;2.26;71.68;102834.81;5082776;27;45345;-64
2022/01/12 00:10:38;;;;;;;;;25.50;20.75;;;;;2.29;71.24;102847.72;5118276;27;45346;-64
2022/01/12 00:13:04;;;;;;;;;34.50;26.75;;;;;2.28;71.21;102851.22;5100224;27;45298;-62
2022/01/12 00:15:29;;;;;;;;;39.50;30.50;;;;;2.28;70.89;102833.06;5099971;27;45339;-64
2022/01/12 00:17:54;;;;;;;;;51.25;31.75;;;;;2.29;71.07;102839.06;5116792;27;73987;-65
2022/01/12 00:20:20;;;;;;;;;46.75;34.25;;;;;2.27;70.77;102835.66;5116979;27;67164;-62
2022/01/12 00:22:45;;;;;;;;;34.25;23.00;;;;;2.27;70.99;102844.31;5099624;27;45526;-62
2022/01/12 00:33:12;;;;;;;;;30.00;23.00;;;;;2.21;70.79;102841.81;5102102;27;45393;-64
2022/01/12 00:35:45;;;;;;;;;33.00;23.50;;;;;2.18;70.84;102837.50;5117801;27;45571;-62
2022/01/12 00:38:10;;;;;;;;;29.50;23.00;;;;;2.18;71.06;102845.28;5117626;27;50727;-64
2022/01/12 00:40:47;;;;;;;;;30.00;24.00;;;;;2.17;71.39;102853.13;5082244;27;45369;-64
2022/01/12 00:43:13;;;;;;;;;32.00;24.00;;;;;2.19;71.22;102859.13;5082490;27;45469;-64
2022/01/12 00:45:41;;;;;;;;;29.00;23.50;;;;;2.18;71.07;102857.41;5099234;27;45325;-63
2022/01/12 00:48:07;;;;;;;;;32.75;24.00;;;;;2.15;71.20;102847.94;5117644;27;46251;-65
2022/01/12 00:50:32;;;;;;;;;37.00;24.00;;;;;2.16;71.21;102849.66;5099044;27;45270;-65
2022/01/12 00:52:57;;;;;;;;;36.50;26.00;;;;;2.17;71.39;102856.53;5116674;27;67391;-63
2022/01/12 00:55:23;;;;;;;;;32.75;25.75;;;;;2.18;71.17;102858.25;5099177;27;45275;-62
2022/01/12 00:57:50;;;;;;;;;38.00;26.50;;;;;2.17;71.11;102861.75;5116564;27;66275;-62
2022/01/12 01:00:15;;;;;;;;;33.00;24.25;;;;;2.16;71.31;102872.16;5117323;27;45441;-61
2022/01/12 01:02:41;;;;;;;;;33.00;23.25;;;;;2.18;71.35;102881.59;5099001;27;45421;-62
2022/01/12 01:05:07;;;;;;;;;32.50;22.50;;;;;2.19;71.28;102878.13;5116582;27;61507;-62
2022/01/12 01:07:32;;;;;;;;;29.50;26.25;;;;;2.21;71.03;102875.53;5097851;27;45565;-64
2022/01/12 01:10:11;;;;;;;;;34.50;22.75;;;;;2.23;71.17;102879.81;5098782;27;45445;-65
2022/01/12 01:12:36;;;;;;;;;34.00;25.75;;;;;2.25;70.75;102877.19;5102481;27;45306;-62
2022/01/12 01:15:07;;;;;;;;;36.50;29.50;;;;;2.28;71.08;102882.34;5101968;27;54012;-63
2022/01/12 01:25:45;;;;;;;;;35.00;24.75;;;;;2.30;71.52;102897.88;5105143;27;45459;-64
2022/01/12 01:28:12;;;;;;;;;27.25;20.25;;;;;2.30;71.43;102905.66;5119573;27;67171;-62
2022/01/12 01:30:38;;;;;;;;;43.75;26.00;;;;;2.29;71.34;102909.13;5120721;27;45775;-63
2022/01/12 01:33:07;;;;;;;;;39.00;25.75;;;;;2.28;71.31;102905.69;5102585;27;45404;-63
2022/01/12 01:35:37;;;;;;;;;25.50;21.00;;;;;2.27;71.24;102906.56;5120739;27;45358;-63
2022/01/12 01:38:03;;;;;;;;;32.50;24.25;;;;;2.28;70.95;102916.06;5102218;27;46381;-63
2022/01/12 01:40:29;;;;;;;;;32.00;25.25;;;;;2.25;71.29;102915.25;5120363;27;48782;-63
2022/01/12 01:43:10;;;;;;;;;36.00;27.50;;;;;2.25;71.06;102923.03;5102385;27;45353;-64
2022/01/12 01:53:49;;;;;;;;;39.00;28.00;;;;;2.10;71.03;102930.16;5105071;27;45213;-62
2022/01/12 01:56:14;;;;;;;;;39.75;29.50;;;;;2.09;71.46;102925.84;5101590;27;59256;-62
2022/01/12 01:58:40;;;;;;;;;54.25;29.50;;;;;2.08;71.51;102929.34;5101061;27;72980;-61
2022/01/12 02:01:06;;;;;;;;;52.50;30.75;;;;;2.07;71.61;102927.63;5102033;27;45320;-62
2022/01/12 02:03:31;;;;;;;;;52.00;36.25;;;;;2.04;71.63;102932.84;5101341;27;61413;-63
2022/01/12 02:05:59;;;;;;;;;48.25;33.00;;;;;2.04;71.65;102945.81;5085012;27;45620;-63
2022/01/12 02:08:24;;;;;;;;;43.50;29.25;;;;;2.04;72.03;102940.63;5102111;27;46251;-65
2022/01/12 02:10:56;;;;;;;;;40.50;31.25;;;;;2.01;72.24;102944.09;5120212;27;45439;-65
2022/01/12 02:13:22;;;;;;;;;37.50;28.25;;;;;2.02;71.99;102934.59;5085020;27;45468;-63
2022/01/12 02:15:48;;;;;;;;;37.50;26.75;;;;;2.02;72.07;102932.00;5101880;27;45312;-65
2022/01/12 02:18:30;;;;;;;;;41.25;30.75;;;;;2.03;71.91;102938.91;5120058;27;45376;-64
2022/01/12 02:40:17;;;;;;;;;40.25;31.50;;;;;2.07;72.80;102922.44;5104219;27;45258;-64
2022/01/12 02:42:45;;;;;;;;;51.25;37.75;;;;;2.07;72.73;102920.69;5119782;27;45936;-65
2022/01/12 02:50:46;;;;;;;;;38.50;30.75;;;;;2.09;72.15;102902.53;5119655;27;45376;-64
2022/01/12 02:55:56;;;;;;;;;33.25;25.25;;;;;2.05;71.99;102888.72;5104292;27;45410;-61
2022/01/12 02:58:21;;;;;;;;;35.25;24.50;;;;;2.00;71.87;102895.72;5119498;27;45238;-63
2022/01/12 03:03:36;;;;;;;;;36.00;30.00;;;;;1.92;72.44;102882.88;5119352;27;45845;-61
2022/01/12 03:06:05;;;;;;;;;33.75;28.25;;;;;1.88;72.57;102878.59;5101421;27;45424;-64
2022/01/12 03:08:36;;;;;;;;;38.25;29.00;;;;;1.85;72.73;102882.97;5084988;27;45505;-62
2022/01/12 03:11:11;;;;;;;;;38.00;28.50;;;;;1.83;72.86;102877.81;5101925;27;46479;-64
2022/01/12 03:13:37;;;;;;;;;37.75;29.25;;;;;1.83;73.40;102895.94;5101070;27;45798;-63
2022/01/12 03:16:10;;;;;;;;;32.25;28.75;;;;;1.84;73.53;102900.25;5101109;27;45421;-64
2022/01/12 03:18:36;;;;;;;;;37.25;28.00;;;;;1.87;73.32;102900.22;5119531;27;45334;-65
2022/01/12 03:21:01;;;;;;;;;36.00;24.25;;;;;1.89;73.22;102900.19;5099889;27;71003;-63
2022/01/12 03:23:27;;;;;;;;;33.50;23.75;;;;;1.89;72.96;102911.44;5099878;27;71360;-65
2022/01/12 03:25:52;;;;;;;;;36.25;27.00;;;;;1.89;73.20;102908.84;5118389;27;61544;-64
2022/01/12 03:28:17;;;;;;;;;30.25;23.00;;;;;1.89;73.24;102907.97;5118845;27;45614;-64
2022/01/12 03:31:03;;;;;;;;;32.50;25.25;;;;;1.90;73.16;102910.53;5100540;27;45341;-64
2022/01/12 03:38:40;;;;;;;;;31.75;21.50;;;;;1.92;73.06;102919.16;5119059;27;45305;-65
2022/01/12 03:41:05;;;;;;;;;23.00;19.75;;;;;1.92;72.96;102931.25;5099370;27;74450;-62
2022/01/12 03:43:31;;;;;;;;;19.25;16.50;;;;;1.92;72.69;102939.03;5117708;27;72373;-64
2022/01/12 03:45:56;;;;;;;;;23.75;15.75;;;;;1.91;72.34;102935.59;5099334;27;66649;-64
2022/01/12 03:48:21;;;;;;;;;21.75;16.50;;;;;1.93;72.47;102928.66;5118012;27;60478;-63
2022/01/12 03:50:48;;;;;;;;;26.75;18.00;;;;;1.92;72.19;102923.47;5117583;27;69699;-64
2022/01/12 03:53:14;;;;;;;;;24.50;16.00;;;;;1.93;71.84;102915.69;5100344;27;45328;-64
2022/01/12 03:55:39;;;;;;;;;19.50;13.50;;;;;1.92;71.91;102924.34;5118514;27;45460;-64
2022/01/12 03:58:05;;;;;;;;;23.75;14.25;;;;;1.92;71.60;102926.94;5117611;27;66891;-63
2022/01/12 04:00:31;;;;;;;;;19.00;14.75;;;;;1.91;71.70;102933.00;5118380;27;45459;-62
2022/01/12 04:02:56;;;;;;;;;18.50;13.75;;;;;1.93;71.55;102946.81;5117534;27;68210;-65
2022/01/12 04:05:29;;;;;;;;;22.00;15.00;;;;;1.91;71.58;102947.69;5118563;27;45405;-64
2022/01/12 04:10:39;;;;;;;;;20.00;15.75;;;;;1.93;71.45;102956.31;5102635;27;45790;-63
2022/01/12 04:13:04;;;;;;;;;22.75;17.00;;;;;1.95;71.25;102957.13;5098947;27;65769;-65
2022/01/12 04:15:30;;;;;;;;;20.75;14.50;;;;;1.95;71.37;102966.66;5065941;27;45269;-63
2022/01/12 04:17:55;;;;;;;;;20.25;14.75;;;;;1.95;71.27;102982.22;5099943;27;45487;-61
2022/01/12 04:20:20;;;;;;;;;22.75;17.00;;;;;1.94;71.30;102978.75;5081653;27;73205;-64
2022/01/12 04:25:31;;;;;;;;;25.00;18.25;;;;;1.97;71.40;102968.34;5102470;27;45323;-66
2022/01/12 04:27:56;;;;;;;;;24.00;18.75;;;;;1.97;71.55;102972.69;5117862;27;45573;-64
2022/01/12 04:30:21;;;;;;;;;27.50;20.75;;;;;1.96;71.54;102965.78;5116807;27;72394;-64
2022/01/12 04:32:47;;;;;;;;;26.25;17.00;;;;;1.93;71.56;102980.50;5099281;27;46201;-64
2022/01/12 04:35:14;;;;;;;;;19.25;18.00;;;;;1.90;71.66;102985.72;5118051;27;45333;-62
2022/01/12 04:37:40;;;;;;;;;30.00;19.25;;;;;1.90;71.68;102984.88;5117832;27;45563;-64
2022/01/12 04:40:06;;;;;;;;;30.00;23.00;;;;;1.91;71.53;102995.22;5099342;27;46024;-63
2022/01/12 04:42:34;;;;;;;;;23.75;19.75;;;;;1.93;71.63;102988.28;5099469;27;45537;-64
2022/01/12 04:45:04;;;;;;;;;35.75;22.25;;;;;1.92;71.65;103002.13;5098526;27;45243;-65
2022/01/12 04:50:13;;;;;;;;;29.00;25.25;;;;;1.88;71.79;103003.03;5117703;27;45248;-62
2022/01/12 04:52:39;;;;;;;;;36.75;23.25;;;;;1.83;72.60;102994.47;5116630;27;70390;-65
2022/01/12 04:55:04;;;;;;;;;35.75;23.00;;;;;1.84;72.70;102992.75;5117605;27;45378;-62
2022/01/12 04:57:30;;;;;;;;;30.00;22.75;;;;;1.84;72.67;102993.59;5117639;27;45239;-63
2022/01/12 05:00:09;;;;;;;;;31.50;23.50;;;;;1.84;72.75;103005.69;5116684;27;67967;-64
2022/01/12 05:08:34;;;;;;;;;28.50;22.00;;;;;1.90;72.73;103022.03;5102072;27;45370;-63
2022/01/12 05:13:45;;;;;;;;;22.75;19.00;;;;;1.93;72.25;103029.78;5101902;27;45842;-66
2022/01/12 05:16:11;;;;;;;;;35.50;22.75;;;;;1.92;72.48;103022.88;5065143;27;45408;-64
2022/01/12 05:18:36;;;;;;;;;24.00;19.00;;;;;1.91;72.29;103015.97;5116762;27;59977;-63
2022/01/12 05:21:02;;;;;;;;;27.75;23.00;;;;;1.91;72.50;103020.28;5097875;27;72160;-63
2022/01/12 05:23:27;;;;;;;;;25.75;19.50;;;;;1.86;72.47;103022.94;5081815;27;45387;-63
2022/01/12 05:25:53;;;;;;;;;26.25;19.00;;;;;1.84;72.30;103014.31;5098982;27;45251;-64
2022/01/12 05:28:19;;;;;;;;;28.25;18.00;;;;;1.84;72.43;103001.38;5097982;27;62446;-64
2022/01/12 05:30:44;;;;;;;;;22.75;16.00;;;;;1.86;72.63;103007.38;5098926;27;46496;-64
2022/01/12 05:33:10;;;;;;;;;21.50;16.25;;;;;1.86;72.18;103012.56;5098653;27;49455;-63
2022/01/12 05:35:36;;;;;;;;;24.00;18.25;;;;;1.85;72.00;102999.66;5098307;27;58399;-64
2022/01/12 05:38:02;;;;;;;;;22.75;16.00;;;;;1.87;72.15;102995.25;5098994;27;45406;-61
2022/01/12 05:40:27;;;;;;;;;25.25;19.75;;;;;1.88;71.83;102997.84;5081861;27;45262;-64
2022/01/12 05:42:54;;;;;;;;;20.25;15.00;;;;;1.88;72.03;103002.16;5116094;27;70872;-64
2022/01/12 05:45:21;;;;;;;;;26.00;11.00;;;;;1.89;71.92;103006.47;5098853;27;45286;-63
2022/01/12 05:50:12;;;;;;;;;29.25;16.50;;;;;1.91;71.84;103008.19;5116810;27;45289;-63
2022/01/12 05:52:37;;;;;;;;;21.75;14.75;;;;;1.91;71.71;103005.59;5098219;27;45365;-64
2022/01/12 05:55:03;;;;;;;;;24.50;18.75;;;;;1.90;71.63;102997.81;5115915;27;65725;-63
2022/01/12 05:57:32;;;;;;;;;23.00;19.50;;;;;1.87;71.57;103003.91;5100803;27;45541;-64
2022/01/12 05:59:58;;;;;;;;;32.00;20.25;;;;;1.86;71.95;103015.16;5102385;27;46276;-64
2022/01/12 06:02:24;;;;;;;;;19.00;14.75;;;;;1.89;71.72;103019.44;5101861;27;45362;-65
2022/01/12 06:04:49;;;;;;;;;19.00;17.75;;;;;1.88;71.45;103021.19;5101989;27;45342;-64
2022/01/12 06:07:14;;;;;;;;;25.50;16.25;;;;;1.88;71.12;103025.50;5101249;27;59551;-62
2022/01/12 06:09:40;;;;;;;;;23.75;17.75;;;;;1.86;71.12;103022.06;5119441;27;57797;-66
2022/01/12 06:12:05;;;;;;;;;19.25;14.75;;;;;1.84;71.10;103018.66;5119066;27;67135;-65
2022/01/12 06:14:31;;;;;;;;;18.75;16.50;;;;;1.83;71.30;103016.94;5084203;27;45350;-64
2022/01/12 06:16:56;;;;;;;;;20.50;14.00;;;;;1.82;71.24;103016.06;5084471;27;45609;-62
2022/01/12 06:19:22;;;;;;;;;23.25;17.75;;;;;1.82;71.11;103010.03;5119392;27;46462;-63
2022/01/12 06:21:47;;;;;;;;;19.50;15.00;;;;;1.78;71.25;103017.84;5119773;27;45268;-64
2022/01/12 06:24:13;;;;;;;;;22.25;14.50;;;;;1.78;71.50;103024.75;5119784;27;45351;-64
2022/01/12 06:26:38;;;;;;;;;29.00;17.25;;;;;1.78;71.68;103022.16;5119735;27;45439;-64
2022/01/12 06:31:38;;;;;;;;;26.75;17.75;;;;;1.76;71.61;103016.13;5102102;27;45236;-62
2022/01/12 06:34:03;;;;;;;;;28.50;19.75;;;;;1.72;71.90;103010.16;5084035;27;45492;-66
2022/01/12 06:36:29;;;;;;;;;23.75;17.50;;;;;1.74;72.21;103023.06;5100216;27;65010;-64
2022/01/12 06:38:54;;;;;;;;;30.00;19.00;;;;;1.75;72.30;103017.00;5118430;27;69930;-65
2022/01/12 06:41:20;;;;;;;;;24.75;17.75;;;;;1.75;71.96;103023.06;5118542;27;70453;-64
2022/01/12 06:43:45;;;;;;;;;22.50;18.00;;;;;1.75;72.03;103035.16;5083952;27;45305;-63
2022/01/12 06:46:11;;;;;;;;;28.75;21.50;;;;;1.76;72.07;103039.47;5083698;27;45390;-63
2022/01/12 06:48:36;;;;;;;;;31.25;21.25;;;;;1.75;72.12;103035.16;5119391;27;45396;-63
2022/01/12 06:51:02;;;;;;;;;28.25;20.25;;;;;1.74;72.27;103036.91;5083821;27;45400;-62
2022/01/12 06:53:27;;;;;;;;;29.75;19.75;;;;;1.75;72.09;103040.34;5119304;27;45386;-64
2022/01/12 06:55:53;;;;;;;;;31.00;20.25;;;;;1.76;72.16;103042.06;5119070;27;45303;-62
2022/01/12 06:58:18;;;;;;;;;28.25;16.75;;;;;1.74;72.17;103029.13;5099821;27;73563;-63
2022/01/12 07:00:43;;;;;;;;;29.50;20.25;;;;;1.75;72.30;103024.78;5119106;27;45234;-64
2022/01/12 07:03:09;;;;;;;;;25.25;18.00;;;;;1.75;72.31;103024.78;5100975;27;45357;-65
2022/01/12 07:05:34;;;;;;;;;24.75;22.00;;;;;1.75;72.83;103019.59;5118324;27;61722;-64
2022/01/12 07:07:59;;;;;;;;;27.75;20.00;;;;;1.77;72.60;103023.03;5117629;27;57943;-63
2022/01/12 07:10:25;;;;;;;;;29.50;22.50;;;;;1.80;72.43;103025.59;5118981;27;45185;-65
2022/01/12 07:12:51;;;;;;;;;27.75;20.75;;;;;1.81;72.32;103023.88;5118646;27;45315;-65
2022/01/12 07:15:16;;;;;;;;;25.00;19.25;;;;;1.81;72.43;103016.94;5118121;27;64409;-66
2022/01/12 07:17:42;;;;;;;;;26.50;19.50;;;;;1.82;72.22;103015.22;5100366;27;48722;-63
2022/01/12 07:20:08;;;;;;;;;27.50;20.00;;;;;1.83;72.31;103014.34;5100718;27;45779;-64
2022/01/12 07:22:33;;;;;;;;;28.25;22.75;;;;;1.82;72.47;103018.66;5119041;27;45333;-63
2022/01/12 07:24:59;;;;;;;;;29.75;24.00;;;;;1.83;72.45;103014.34;5118467;27;54620;-63
2022/01/12 07:27:24;;;;;;;;;26.25;22.50;;;;;1.80;72.65;103007.44;5082112;27;70027;-63
2022/01/12 07:29:49;;;;;;;;;35.25;22.25;;;;;1.80;72.83;103012.63;5117480;27;70351;-64
2022/01/12 07:32:15;;;;;;;;;32.75;23.75;;;;;1.79;72.76;103016.09;5118944;27;45467;-63
2022/01/12 07:34:40;;;;;;;;;28.50;21.25;;;;;1.80;72.36;103032.53;5117647;27;45382;-63
2022/01/12 07:37:05;;;;;;;;;20.00;17.25;;;;;1.80;72.50;103035.97;5117860;27;71735;-63
2022/01/12 07:39:31;;;;;;;;;25.75;18.75;;;;;1.78;72.35;103041.19;5117693;27;63995;-64
2022/01/12 07:41:56;;;;;;;;;25.25;18.75;;;;;1.78;72.03;103043.78;5083267;27;45467;-63
2022/01/12 07:44:22;;;;;;;;;24.50;19.25;;;;;1.77;71.92;103056.75;5117430;27;64819;-64
2022/01/12 07:46:48;;;;;;;;;24.00;19.00;;;;;1.70;72.16;103049.91;5099678;27;47085;-63
2022/01/12 07:49:13;;;;;;;;;27.75;22.75;;;;;1.70;72.26;103065.44;5118013;27;45372;-63
2022/01/12 07:51:38;;;;;;;;;30.50;18.75;;;;;1.66;72.21;103062.03;5099465;27;60657;-65
2022/01/12 07:54:04;;;;;;;;;24.75;19.75;;;;;1.65;72.25;103075.88;5117742;27;62696;-62
2022/01/12 07:56:29;;;;;;;;;29.50;23.25;;;;;1.64;71.92;103076.75;5118086;27;45361;-65
2022/01/12 07:58:54;;;;;;;;;28.50;22.75;;;;;1.63;72.30;103077.63;5099865;27;45369;-62
2022/01/12 08:01:20;;;;;;;;;20.75;18.50;;;;;1.63;71.81;103086.25;5117982;27;45558;-61
2022/01/12 08:03:45;;;;;;;;;39.00;28.25;;;;;1.63;72.12;103099.19;5118222;27;45517;-63
2022/01/12 08:06:10;;;;;;;;;35.50;20.75;;;;;1.62;72.26;103091.47;5116786;27;73696;-63
2022/01/12 08:08:36;;;;;;;;;32.25;24.50;;;;;1.62;72.42;103097.47;5098682;27;64766;-64
2022/01/12 08:11:01;;;;;;;;;20.50;18.00;;;;;1.62;72.23;103101.81;5098672;27;68745;-66
2022/01/12 08:13:27;;;;;;;;;26.50;16.00;;;;;1.62;72.20;103105.25;5117805;27;53685;-61
2022/01/12 08:15:52;;;;;;;;;21.50;17.50;;;;;1.63;72.17;103114.75;5116962;27;67317;-62
2022/01/12 08:18:17;;;;;;;;;33.50;25.50;;;;;1.64;71.67;103113.03;5117054;27;68625;-62
2022/01/12 08:20:43;;;;;;;;;11.50;11.50;;;;;1.63;71.77;103109.56;5099667;27;45324;-64
2022/01/12 08:23:08;;;;;;;;;24.25;18.50;;;;;1.62;71.35;103122.56;5117973;27;45551;-63
2022/01/12 08:25:37;;;;;;;;;28.75;18.50;;;;;1.58;71.51;103131.22;5099633;27;46278;-64
2022/01/12 08:28:04;;;;;;;;;20.00;16.25;;;;;1.54;71.96;103130.41;5099145;27;45312;-64
2022/01/12 08:30:31;;;;;;;;;27.50;20.00;;;;;1.55;72.01;103137.31;5099885;27;45441;-61
2022/01/12 08:32:56;;;;;;;;;29.25;21.75;;;;;1.55;72.08;103139.91;5099897;27;45329;-64
2022/01/12 08:35:22;;;;;;;;;26.75;20.00;;;;;1.56;72.04;103136.44;5117756;27;46112;-64
2022/01/12 08:37:47;;;;;;;;;29.00;22.75;;;;;1.56;71.81;103144.22;5099448;27;45400;-64
2022/01/12 08:40:13;;;;;;;;;33.25;22.25;;;;;1.59;72.11;103144.16;5117299;27;60445;-63
2022/01/12 08:42:39;;;;;;;;;35.25;23.00;;;;;1.58;71.88;103150.25;5099379;27;45443;-62
2022/01/12 08:45:05;;;;;;;;;34.00;24.00;;;;;1.55;71.67;103152.84;5116883;27;66952;-63
2022/01/12 08:47:30;;;;;;;;;35.75;23.00;;;;;1.55;72.12;103162.34;5081626;27;45891;-65
2022/01/12 08:49:56;;;;;;;;;33.75;24.50;;;;;1.53;72.31;103154.59;5116914;27;65451;-67
2022/01/12 08:52:22;;;;;;;;;42.25;35.00;;;;;1.53;72.40;103159.78;5117716;27;45545;-65
2022/01/12 08:54:48;;;;;;;;;35.50;27.25;;;;;1.54;72.23;103155.44;5117485;27;45548;-65
2022/01/12 08:57:13;;;;;;;;;42.50;28.50;;;;;1.54;72.74;103156.31;5098265;27;66026;-66
2022/01/12 08:59:39;;;;;;;;;37.50;31.25;;;;;1.53;72.75;103154.59;5117061;27;64030;-62
2022/01/12 09:02:06;;;;;;;;;45.00;32.00;;;;;1.53;72.56;103152.00;5117787;27;45472;-62
2022/01/12 09:04:31;;;;;;;;;31.25;25.50;;;;;1.58;72.57;103165.78;5117640;27;45387;-62
2022/01/12 09:06:57;;;;;;;;;37.00;29.75;;;;;1.61;72.62;103172.66;5116666;27;72348;-64
2022/01/12 09:09:24;;;;;;;;;46.75;31.25;;;;;1.58;72.96;103170.97;5099381;27;45491;-65
2022/01/12 09:11:50;;;;;;;;;47.00;32.75;;;;;1.62;72.85;103177.81;5117661;27;45361;-62
2022/01/12 09:14:15;;;;;;;;;37.75;31.50;;;;;1.62;72.91;103190.78;5095433;27;45503;-63
2022/01/12 09:16:41;;;;;;;;;35.00;27.50;;;;;1.67;72.96;103195.06;5100000;27;66370;-62
2022/01/12 09:19:06;;;;;;;;;38.00;27.50;;;;;1.71;72.98;103197.66;5078033;27;53127;-64
2022/01/12 09:21:33;;;;;;;;;36.00;27.50;;;;;1.76;73.08;103197.59;5077576;27;45612;-62
2022/01/12 09:23:58;;;;;;;;;34.50;27.50;;;;;1.83;73.54;103196.69;5095543;27;46496;-64
2022/01/12 09:26:23;;;;;;;;;38.75;31.50;;;;;1.90;72.98;103211.31;5066586;27;45427;-67
2022/01/12 09:28:49;;;;;;;;;44.75;33.00;;;;;1.99;72.64;103210.34;5094495;27;56858;-64
2022/01/12 09:31:14;;;;;;;;;48.75;35.50;;;;;2.03;72.43;103217.22;5099717;27;45259;-63
2022/01/12 09:33:40;;;;;;;;;50.25;34.25;;;;;2.05;72.59;103225.88;5116713;27;45671;-63
2022/01/12 09:36:05;;;;;;;;;51.25;37.25;;;;;2.12;72.56;103231.00;5080622;27;45388;-65
2022/01/12 09:38:31;;;;;;;;;47.75;38.25;;;;;2.16;72.29;103233.53;5098908;27;45622;-63
2022/01/12 09:40:56;;;;;;;;;39.25;35.00;;;;;2.20;72.27;103239.56;5080017;27;63860;-63
2022/01/12 09:43:26;;;;;;;;;49.25;39.00;;;;;2.27;72.20;103237.75;5098729;27;56304;-62
2022/01/12 09:45:52;;;;;;;;;44.00;35.25;;;;;2.29;72.29;103249.88;5098754;27;45545;-65
2022/01/12 09:48:23;;;;;;;;;45.75;33.50;;;;;2.34;71.75;103252.41;5080968;27;45517;-62
2022/01/12 09:50:51;;;;;;;;;50.75;33.25;;;;;2.38;71.74;103248.91;5080773;27;45358;-63
2022/01/12 09:53:16;;;;;;;;;41.00;32.50;;;;;2.41;71.49;103242.81;5098702;27;46307;-66
2022/01/12 09:55:41;;;;;;;;;48.25;30.25;;;;;2.42;71.53;103247.13;5082019;27;65393;-65
2022/01/12 09:58:07;;;;;;;;;57.00;36.75;;;;;2.44;71.40;103246.25;5098484;27;51434;-64
2022/01/12 10:00:33;;;;;;;;;46.50;34.00;;;;;2.48;71.39;103254.84;5079682;27;67803;-61
2022/01/12 10:03:10;;;;;;;;;33.00;26.25;;;;;2.50;71.10;103247.91;5098541;27;46342;-62
2022/01/12 10:05:35;;;;;;;;;66.25;52.75;;;;;2.55;71.02;103245.28;5067550;27;45691;-62
2022/01/12 10:08:12;;;;;;;;;43.00;34.50;;;;;2.59;70.95;103239.19;5079416;27;57944;-63
2022/01/12 10:10:37;;;;;;;;;42.00;36.25;;;;;2.64;70.66;103242.59;5080215;27;45477;-64
2022/01/12 10:13:03;;;;;;;;;47.00;35.00;;;;;2.69;70.74;103251.16;5098548;27;45550;-61
2022/01/12 10:15:29;;;;;;;;;41.00;34.50;;;;;2.73;70.91;103242.47;5092782;27;45533;-65
2022/01/12 10:17:59;;;;;;;;;46.00;37.75;;;;;2.79;70.91;103239.78;5081935;27;45553;-67
2022/01/12 10:20:24;;;;;;;;;44.00;35.75;;;;;2.86;70.60;103239.72;5080179;27;45421;-61
2022/01/12 10:23:01;;;;;;;;;33.75;30.75;;;;;2.91;70.53;103240.53;5079927;27;74154;-64
2022/01/12 10:25:28;;;;;;;;;52.50;34.00;;;;;2.96;70.44;103238.72;5081350;27;45464;-64
2022/01/12 10:27:53;;;;;;;;;42.75;37.00;;;;;3.01;70.45;103236.94;5079739;27;45449;-65
2022/01/12 10:30:26;;;;;;;;;41.00;33.25;;;;;3.09;70.44;103247.22;5079060;27;65056;-65
2022/01/12 10:33:01;;;;;;;;;34.25;20.25;;;;;3.17;70.24;103245.38;5079391;27;45411;-61
2022/01/12 10:35:27;;;;;;;;;49.00;37.75;;;;;3.21;69.91;103241.88;5067433;27;45411;-64
2022/01/12 10:37:53;;;;;;;;;42.00;33.00;;;;;3.25;69.99;103248.75;5080966;27;45342;-61
2022/01/12 10:40:18;;;;;;;;;47.25;37.50;;;;;3.28;69.75;103247.81;5078696;27;56021;-63
2022/01/12 10:42:45;;;;;;;;;40.75;31.25;;;;;3.31;70.07;103252.97;5095763;27;75556;-62
2022/01/12 10:45:11;;;;;;;;;47.50;36.75;;;;;3.34;69.94;103252.94;5086708;27;45284;-61
2022/01/12 10:47:36;;;;;;;;;52.75;36.00;;;;;3.36;69.89;103251.19;5089410;27;64411;-63
2022/01/12 10:50:10;;;;;;;;;58.50;40.75;;;;;3.41;69.79;103248.53;5080515;27;70547;-62
2022/01/12 10:52:39;;;;;;;;;54.50;41.00;;;;;3.42;69.60;103245.91;5079449;27;45481;-64
2022/01/12 10:55:05;;;;;;;;;53.25;40.25;;;;;3.45;69.17;103257.13;5079553;27;45363;-64
2022/01/12 10:57:36;;;;;;;;;54.50;40.00;;;;;3.47;69.77;103260.56;5078658;27;46216;-63
2022/01/12 11:00:23;;;;;;;;;50.25;40.75;;;;;3.52;69.33;103258.75;5099612;27;45588;-62
2022/01/12 11:02:52;;;;;;;;;58.00;43.00;;;;;3.58;69.15;103263.88;5097422;27;45395;-64
2022/01/12 11:05:18;;;;;;;;;61.25;43.25;;;;;3.61;69.26;103253.44;5099914;27;45856;-61
2022/01/12 11:07:43;;;;;;;;;58.25;43.25;;;;;3.67;68.76;103262.88;5097227;27;45432;-64
2022/01/12 11:10:10;;;;;;;;;54.25;37.00;;;;;3.70;68.91;103260.22;5079186;27;45500;-63
2022/01/12 11:12:36;;;;;;;;;59.50;39.25;;;;;3.73;68.90;103260.19;5089614;27;46544;-63
2022/01/12 11:15:13;;;;;;;;;59.00;43.75;;;;;3.74;68.58;103263.63;5099539;27;45360;-61
2022/01/12 11:17:39;;;;;;;;;58.50;40.75;;;;;3.75;69.10;103267.94;5078941;27;45467;-62
2022/01/12 11:20:10;;;;;;;;;46.75;39.25;;;;;3.77;68.93;103261.84;5078997;27;45497;-62
2022/01/12 11:22:59;;;;;;;;;53.00;39.00;;;;;3.81;68.76;103254.84;5077517;27;46521;-62
2022/01/12 11:25:36;;;;;;;;;52.75;40.25;;;;;3.82;68.86;103259.16;5078853;27;45741;-62
2022/01/12 11:28:08;;;;;;;;;48.50;39.75;;;;;3.84;69.18;103252.19;5080527;27;45557;-65
2022/01/12 11:30:34;;;;;;;;;51.75;39.50;;;;;3.88;69.01;103253.03;5097152;27;45370;-62
2022/01/12 11:33:03;;;;;;;;;58.50;42.50;;;;;3.90;68.79;103251.25;5078700;27;45540;-61
2022/01/12 11:35:32;;;;;;;;;56.00;40.00;;;;;3.92;69.27;103245.13;5079216;27;45410;-63
2022/01/12 11:37:59;;;;;;;;;48.75;40.25;;;;;3.95;68.99;103244.22;5096725;27;45459;-65
2022/01/12 11:40:41;;;;;;;;;60.50;41.00;;;;;3.98;69.40;103239.81;5101449;27;45425;-64
2022/01/12 11:43:42;;;;;;;;;55.75;45.50;;;;;4.05;69.39;103237.13;5083557;27;46252;-61
2022/01/12 11:46:09;;;;;;;;;54.00;40.75;;;;;4.06;69.44;103231.88;5094536;27;45445;-65
2022/01/12 11:49:04;;;;;;;;;54.75;39.75;;;;;4.10;69.40;103232.69;5110309;27;45480;-63
2022/01/12 11:51:34;;;;;;;;;54.75;37.25;;;;;4.13;69.79;103230.03;5076571;27;69558;-65
2022/01/12 11:54:11;;;;;;;;;61.50;44.50;;;;;4.18;69.78;103215.22;5095910;27;46056;-63
2022/01/12 11:56:38;;;;;;;;;65.25;45.25;;;;;4.22;69.66;103216.88;5078068;27;45400;-63
2022/01/12 11:59:12;;;;;;;;;70.00;51.25;;;;;4.26;69.39;103212.44;5078748;27;45516;-65
2022/01/12 12:01:48;;;;;;;;;66.25;48.00;;;;;4.30;69.33;103211.50;5091295;27;45411;-62
2022/01/12 12:04:24;;;;;;;;;64.75;47.00;;;;;4.35;69.07;103214.00;5079314;27;46118;-65
2022/01/12 12:06:50;;;;;;;;;69.00;52.00;;;;;4.40;68.76;103223.47;5078902;27;45680;-64
2022/01/12 12:09:18;;;;;;;;;76.25;53.50;;;;;4.42;68.93;103226.91;5075929;27;46165;-65
2022/01/12 12:11:51;;;;;;;;;68.00;50.25;;;;;4.43;69.08;103219.94;5080495;27;45262;-61
2022/01/12 12:14:16;;;;;;;;;79.25;53.25;;;;;4.48;68.93;103218.09;5078104;27;45405;-61
2022/01/12 12:16:42;;;;;;;;;74.25;52.00;;;;;4.52;69.16;103221.50;5099306;27;45400;-63
2022/01/12 12:19:07;;;;;;;;;68.00;49.25;;;;;4.54;69.16;103212.78;5095565;27;66329;-64
2022/01/12 12:21:32;;;;;;;;;66.50;48.00;;;;;4.57;69.15;103210.13;5096172;27;56555;-64
2022/01/12 12:24:11;;;;;;;;;81.50;58.50;;;;;4.64;68.85;103217.81;5112622;27;64976;-64
2022/01/12 12:26:47;;;;;;;;;68.50;50.25;;;;;4.68;68.74;103209.06;5102433;27;45469;-64
2022/01/12 12:29:14;;;;;;;;;73.25;52.50;;;;;4.72;68.47;103206.34;5082312;27;45490;-64
2022/01/12 12:31:40;;;;;;;;;77.50;56.00;;;;;4.79;68.75;103201.84;5076605;27;45280;-65
2022/01/12 12:34:06;;;;;;;;;109.50;89.75;;;;;4.84;68.55;103194.78;5077880;27;46842;-63
2022/01/12 12:36:32;;;;;;;;;101.00;82.25;;;;;4.89;68.45;103182.53;5081170;27;68748;-66
2022/01/12 12:39:09;;;;;;;;;84.75;63.75;;;;;4.93;68.29;103182.47;5100089;27;47056;-64